sensor_id;sensor_type;location;lat;lon;timestamp;P1;durP1;ratioP1;P2;durP2;ratioP2
15496;SDS011;7850;52.204;5.942;2022-10-19T00:02:38;1.90;;;1.84;;
15496;SDS011;7850;52.204;5.942;2022-10-19T00:02:38;0.56;;;0.55;;
15496;SDS011;7850;52.204;5.942;2022-10-19T00:02:38;0.50;;;0.50;;
15496;SDS011;7850;52.204;5.942;2022-10-19T00:03:28;1.30;;;1.29;;
15496;SDS011;7850;52.204;5.942;2022-10-19T00:04:28;0.26;;;0.25;;
15496;SDS011;7850;52.204;5.942;2022-10-19T00:05:28;13.11;;;12.53;;
15496;SDS011;7850;52.204;5.942;2022-10-19T00:06:29;16.86;;;16.10;;
15496;SDS011;7850;52.204;5.942;2022-10-19T00:07:29;8.38;;;8.03;;
15496;SDS011;7850;52.204;5.942;2022-10-19T00:08:29;1.70;;;1.70;;
15496;SDS011;7850;52.204;5.942;2022-10-19T00:09:29;0.26;;;0.25;;
15496;SDS011;7850;52.204;5.942;2022-10-19T00:10:29;0.20;;;0.20;;
15496;SDS011;7850;52.204;5.942;2022-10-19T00:11:29;0.14;;;0.14;;
15496;SDS011;7850;52.204;5.942;2022-10-19T00:12:29;0.20;;;0.20;;
15496;SDS011;7850;52.204;5.942;2022-10-19T00:13:29;0.21;;;0.21;;
15496;SDS011;7850;52.204;5.942;2022-10-19T00:14:29;1.24;;;1.23;;
15496;SDS011;7850;52.204;5.942;2022-10-19T00:15:29;1.38;;;1.37;;
15496;SDS011;7850;52.204;5.942;2022-10-19T00:16:30;0.75;;;0.74;;
15496;SDS011;7850;52.204;5.942;2022-10-19T00:17:29;4.81;;;4.62;;
15496;SDS011;7850;52.204;5.942;2022-10-19T00:18:29;6.92;;;6.63;;
15496;SDS011;7850;52.204;5.942;2022-10-19T00:19:29;7.81;;;7.46;;
15496;SDS011;7850;52.204;5.942;2022-10-19T00:20:29;0.78;;;0.78;;
15496;SDS011;7850;52.204;5.942;2022-10-19T00:21:29;1.69;;;1.64;;
15496;SDS011;7850;52.204;5.942;2022-10-19T00:22:29;0.44;;;0.44;;
15496;SDS011;7850;52.204;5.942;2022-10-19T00:23:29;1.29;;;1.27;;
15496;SDS011;7850;52.204;5.942;2022-10-19T00:24:29;1.21;;;1.20;;
15496;SDS011;7850;52.204;5.942;2022-10-19T00:25:29;2.02;;;1.96;;
15496;SDS011;7850;52.204;5.942;2022-10-19T00:26:30;2.03;;;1.98;;
15496;SDS011;7850;52.204;5.942;2022-10-19T00:27:30;2.49;;;2.39;;
15496;SDS011;7850;52.204;5.942;2022-10-19T00:28:30;6.25;;;5.99;;
15496;SDS011;7850;52.204;5.942;2022-10-19T00:29:30;0.22;;;0.22;;
15496;SDS011;7850;52.204;5.942;2022-10-19T00:30:30;0.20;;;0.20;;
15496;SDS011;7850;52.204;5.942;2022-10-19T00:31:30;0.10;;;0.10;;
15496;SDS011;7850;52.204;5.942;2022-10-19T00:32:30;0.15;;;0.15;;
15496;SDS011;7850;52.204;5.942;2022-10-19T00:33:30;0.13;;;0.12;;
15496;SDS011;7850;52.204;5.942;2022-10-19T00:34:30;0.10;;;0.10;;
15496;SDS011;7850;52.204;5.942;2022-10-19T00:35:30;0.10;;;0.10;;
15496;SDS011;7850;52.204;5.942;2022-10-19T00:36:31;0.30;;;0.30;;
15496;SDS011;7850;52.204;5.942;2022-10-19T00:37:30;0.20;;;0.20;;
15496;SDS011;7850;52.204;5.942;2022-10-19T00:38:30;0.10;;;0.10;;
15496;SDS011;7850;52.204;5.942;2022-10-19T00:39:30;0.19;;;0.18;;
15496;SDS011;7850;52.204;5.942;2022-10-19T00:40:35;0.20;;;0.20;;
15496;SDS011;7850;52.204;5.942;2022-10-19T00:41:32;0.20;;;0.20;;
15496;SDS011;7850;52.204;5.942;2022-10-19T00:42:30;0.20;;;0.20;;
15496;SDS011;7850;52.204;5.942;2022-10-19T00:43:31;0.14;;;0.13;;
15496;SDS011;7850;52.204;5.942;2022-10-19T00:45:31;0.15;;;0.14;;
15496;SDS011;7850;52.204;5.942;2022-10-19T00:46:32;0.19;;;0.18;;
15496;SDS011;7850;52.204;5.942;2022-10-19T00:47:31;0.20;;;0.20;;
15496;SDS011;7850;52.204;5.942;2022-10-19T00:48:31;0.20;;;0.20;;
15496;SDS011;7850;52.204;5.942;2022-10-19T00:49:31;0.20;;;0.20;;
15496;SDS011;7850;52.204;5.942;2022-10-19T00:50:31;0.11;;;0.10;;
15496;SDS011;7850;52.204;5.942;2022-10-19T00:51:31;0.20;;;0.19;;
15496;SDS011;7850;52.204;5.942;2022-10-19T00:52:31;0.14;;;0.13;;
15496;SDS011;7850;52.204;5.942;2022-10-19T00:53:31;0.10;;;0.10;;
15496;SDS011;7850;52.204;5.942;2022-10-19T00:54:31;0.20;;;0.20;;
15496;SDS011;7850;52.204;5.942;2022-10-19T00:55:31;0.10;;;0.10;;
15496;SDS011;7850;52.204;5.942;2022-10-19T00:56:31;0.16;;;0.15;;
15496;SDS011;7850;52.204;5.942;2022-10-19T00:57:31;0.20;;;0.20;;
15496;SDS011;7850;52.204;5.942;2022-10-19T00:58:31;0.20;;;0.20;;
15496;SDS011;7850;52.204;5.942;2022-10-19T00:59:31;0.20;;;0.20;;
15496;SDS011;7850;52.204;5.942;2022-10-19T01:00:31;0.20;;;0.20;;
15496;SDS011;7850;52.204;5.942;2022-10-19T01:01:31;0.10;;;0.10;;
15496;SDS011;7850;52.204;5.942;2022-10-19T01:02:31;0.20;;;0.19;;
15496;SDS011;7850;52.204;5.942;2022-10-19T01:03:31;0.11;;;0.11;;
15496;SDS011;7850;52.204;5.942;2022-10-19T01:04:32;0.10;;;0.10;;
15496;SDS011;7850;52.204;5.942;2022-10-19T01:05:32;0.10;;;0.10;;
15496;SDS011;7850;52.204;5.942;2022-10-19T01:06:32;0.19;;;0.19;;
15496;SDS011;7850;52.204;5.942;2022-10-19T01:07:32;0.20;;;0.19;;
15496;SDS011;7850;52.204;5.942;2022-10-19T01:08:32;0.18;;;0.17;;
15496;SDS011;7850;52.204;5.942;2022-10-19T01:09:32;0.10;;;0.10;;
15496;SDS011;7850;52.204;5.942;2022-10-19T01:10:34;0.20;;;0.20;;
15496;SDS011;7850;52.204;5.942;2022-10-19T01:11:36;0.13;;;0.12;;
15496;SDS011;7850;52.204;5.942;2022-10-19T01:12:39;0.19;;;0.19;;
15496;SDS011;7850;52.204;5.942;2022-10-19T01:13:34;0.17;;;0.16;;
15496;SDS011;7850;52.204;5.942;2022-10-19T01:14:34;0.18;;;0.17;;
15496;SDS011;7850;52.204;5.942;2022-10-19T01:15:34;0.15;;;0.15;;
15496;SDS011;7850;52.204;5.942;2022-10-19T01:16:34;0.10;;;0.10;;
15496;SDS011;7850;52.204;5.942;2022-10-19T01:17:35;0.10;;;0.10;;
15496;SDS011;7850;52.204;5.942;2022-10-19T01:18:34;0.14;;;0.13;;
15496;SDS011;7850;52.204;5.942;2022-10-19T01:19:38;0.10;;;0.10;;
15496;SDS011;7850;52.204;5.942;2022-10-19T01:20:41;0.13;;;0.12;;
15496;SDS011;7850;52.204;5.942;2022-10-19T01:21:33;0.20;;;0.20;;
15496;SDS011;7850;52.204;5.942;2022-10-19T01:22:35;0.14;;;0.14;;
15496;SDS011;7850;52.204;5.942;2022-10-19T01:23:38;0.10;;;0.10;;
15496;SDS011;7850;52.204;5.942;2022-10-19T01:24:42;0.10;;;0.10;;
15496;SDS011;7850;52.204;5.942;2022-10-19T01:25:36;0.20;;;0.20;;
15496;SDS011;7850;52.204;5.942;2022-10-19T01:26:37;0.10;;;0.10;;
15496;SDS011;7850;52.204;5.942;2022-10-19T01:27:52;0.16;;;0.15;;
15496;SDS011;7850;52.204;5.942;2022-10-19T01:28:38;0.13;;;0.12;;
15496;SDS011;7850;52.204;5.942;2022-10-19T01:29:39;0.13;;;0.13;;
15496;SDS011;7850;52.204;5.942;2022-10-19T01:30:37;0.14;;;0.14;;
15496;SDS011;7850;52.204;5.942;2022-10-19T01:31:34;0.14;;;0.13;;
15496;SDS011;7850;52.204;5.942;2022-10-19T01:32:37;0.16;;;0.15;;
15496;SDS011;7850;52.204;5.942;2022-10-19T01:33:36;0.15;;;0.15;;
15496;SDS011;7850;52.204;5.942;2022-10-19T01:34:35;0.18;;;0.17;;
15496;SDS011;7850;52.204;5.942;2022-10-19T01:35:34;0.10;;;0.10;;
15496;SDS011;7850;52.204;5.942;2022-10-19T01:36:36;0.19;;;0.19;;
15496;SDS011;7850;52.204;5.942;2022-10-19T01:37:34;0.10;;;0.10;;
15496;SDS011;7850;52.204;5.942;2022-10-19T01:38:35;0.10;;;0.10;;
15496;SDS011;7850;52.204;5.942;2022-10-19T01:39:34;0.10;;;0.10;;
15496;SDS011;7850;52.204;5.942;2022-10-19T01:40:36;0.10;;;0.10;;
15496;SDS011;7850;52.204;5.942;2022-10-19T01:41:36;0.10;;;0.10;;
15496;SDS011;7850;52.204;5.942;2022-10-19T01:42:35;0.20;;;0.20;;
15496;SDS011;7850;52.204;5.942;2022-10-19T01:43:36;0.14;;;0.14;;
15496;SDS011;7850;52.204;5.942;2022-10-19T01:44:34;0.18;;;0.17;;
15496;SDS011;7850;52.204;5.942;2022-10-19T01:45:35;0.10;;;0.10;;
15496;SDS011;7850;52.204;5.942;2022-10-19T01:46:35;0.10;;;0.10;;
15496;SDS011;7850;52.204;5.942;2022-10-19T01:47:34;0.20;;;0.20;;
15496;SDS011;7850;52.204;5.942;2022-10-19T01:48:34;0.11;;;0.10;;
15496;SDS011;7850;52.204;5.942;2022-10-19T01:49:37;0.17;;;0.16;;
15496;SDS011;7850;52.204;5.942;2022-10-19T01:50:35;0.10;;;0.10;;
15496;SDS011;7850;52.204;5.942;2022-10-19T01:51:36;0.17;;;0.17;;
15496;SDS011;7850;52.204;5.942;2022-10-19T01:52:34;0.13;;;0.12;;
15496;SDS011;7850;52.204;5.942;2022-10-19T01:53:37;0.22;;;0.22;;
15496;SDS011;7850;52.204;5.942;2022-10-19T01:54:36;0.12;;;0.11;;
15496;SDS011;7850;52.204;5.942;2022-10-19T01:55:35;0.10;;;0.10;;
15496;SDS011;7850;52.204;5.942;2022-10-19T01:56:35;0.21;;;0.21;;
15496;SDS011;7850;52.204;5.942;2022-10-19T01:57:35;0.53;;;0.52;;
15496;SDS011;7850;52.204;5.942;2022-10-19T01:58:35;0.46;;;0.45;;
15496;SDS011;7850;52.204;5.942;2022-10-19T01:59:35;0.20;;;0.20;;
15496;SDS011;7850;52.204;5.942;2022-10-19T02:00:36;0.15;;;0.14;;
15496;SDS011;7850;52.204;5.942;2022-10-19T02:01:35;0.20;;;0.20;;
15496;SDS011;7850;52.204;5.942;2022-10-19T02:02:36;0.10;;;0.10;;
15496;SDS011;7850;52.204;5.942;2022-10-19T02:03:35;0.20;;;0.20;;
15496;SDS011;7850;52.204;5.942;2022-10-19T02:04:35;0.20;;;0.20;;
15496;SDS011;7850;52.204;5.942;2022-10-19T02:05:35;0.17;;;0.16;;
15496;SDS011;7850;52.204;5.942;2022-10-19T02:06:35;0.16;;;0.15;;
15496;SDS011;7850;52.204;5.942;2022-10-19T02:07:35;0.14;;;0.13;;
15496;SDS011;7850;52.204;5.942;2022-10-19T02:08:36;0.20;;;0.20;;
15496;SDS011;7850;52.204;5.942;2022-10-19T02:09:35;0.19;;;0.19;;
15496;SDS011;7850;52.204;5.942;2022-10-19T02:10:36;0.26;;;0.25;;
15496;SDS011;7850;52.204;5.942;2022-10-19T02:11:36;0.17;;;0.16;;
15496;SDS011;7850;52.204;5.942;2022-10-19T02:12:36;0.20;;;0.20;;
15496;SDS011;7850;52.204;5.942;2022-10-19T02:13:36;0.20;;;0.20;;
15496;SDS011;7850;52.204;5.942;2022-10-19T02:14:36;0.20;;;0.20;;
15496;SDS011;7850;52.204;5.942;2022-10-19T02:15:37;0.10;;;0.10;;
15496;SDS011;7850;52.204;5.942;2022-10-19T02:16:37;0.13;;;0.13;;
15496;SDS011;7850;52.204;5.942;2022-10-19T02:17:37;0.20;;;0.20;;
15496;SDS011;7850;52.204;5.942;2022-10-19T02:18:37;0.20;;;0.20;;
15496;SDS011;7850;52.204;5.942;2022-10-19T02:19:36;0.20;;;0.20;;
15496;SDS011;7850;52.204;5.942;2022-10-19T02:20:36;0.20;;;0.20;;
15496;SDS011;7850;52.204;5.942;2022-10-19T02:21:36;0.20;;;0.20;;
15496;SDS011;7850;52.204;5.942;2022-10-19T02:22:36;0.20;;;0.20;;
15496;SDS011;7850;52.204;5.942;2022-10-19T02:23:36;0.20;;;0.20;;
15496;SDS011;7850;52.204;5.942;2022-10-19T02:24:36;0.19;;;0.18;;
15496;SDS011;7850;52.204;5.942;2022-10-19T02:25:36;0.17;;;0.16;;
15496;SDS011;7850;52.204;5.942;2022-10-19T02:26:37;0.20;;;0.20;;
15496;SDS011;7850;52.204;5.942;2022-10-19T02:27:37;0.20;;;0.20;;
15496;SDS011;7850;52.204;5.942;2022-10-19T02:28:37;0.20;;;0.20;;
15496;SDS011;7850;52.204;5.942;2022-10-19T02:29:37;0.20;;;0.20;;
15496;SDS011;7850;52.204;5.942;2022-10-19T02:30:37;0.15;;;0.15;;
15496;SDS011;7850;52.204;5.942;2022-10-19T02:31:37;0.14;;;0.14;;
15496;SDS011;7850;52.204;5.942;2022-10-19T02:32:37;0.20;;;0.20;;
15496;SDS011;7850;52.204;5.942;2022-10-19T02:33:37;0.20;;;0.20;;
15496;SDS011;7850;52.204;5.942;2022-10-19T02:34:37;0.10;;;0.10;;
15496;SDS011;7850;52.204;5.942;2022-10-19T02:35:37;0.20;;;0.20;;
15496;SDS011;7850;52.204;5.942;2022-10-19T02:36:37;0.18;;;0.17;;
15496;SDS011;7850;52.204;5.942;2022-10-19T02:37:37;0.19;;;0.19;;
15496;SDS011;7850;52.204;5.942;2022-10-19T02:38:37;0.10;;;0.10;;
15496;SDS011;7850;52.204;5.942;2022-10-19T02:39:37;0.10;;;0.10;;
15496;SDS011;7850;52.204;5.942;2022-10-19T02:40:38;0.20;;;0.20;;
15496;SDS011;7850;52.204;5.942;2022-10-19T02:41:38;0.20;;;0.20;;
15496;SDS011;7850;52.204;5.942;2022-10-19T02:42:38;0.18;;;0.17;;
15496;SDS011;7850;52.204;5.942;2022-10-19T02:43:38;0.23;;;0.22;;
15496;SDS011;7850;52.204;5.942;2022-10-19T02:44:40;0.20;;;0.20;;
15496;SDS011;7850;52.204;5.942;2022-10-19T02:45:40;0.16;;;0.16;;
15496;SDS011;7850;52.204;5.942;2022-10-19T02:46:39;0.20;;;0.20;;
15496;SDS011;7850;52.204;5.942;2022-10-19T02:47:40;0.20;;;0.20;;
15496;SDS011;7850;52.204;5.942;2022-10-19T02:48:38;2.08;;;1.97;;
15496;SDS011;7850;52.204;5.942;2022-10-19T02:49:38;3.23;;;3.12;;
15496;SDS011;7850;52.204;5.942;2022-10-19T02:50:41;1.70;;;1.67;;
15496;SDS011;7850;52.204;5.942;2022-10-19T02:51:39;2.83;;;2.72;;
15496;SDS011;7850;52.204;5.942;2022-10-19T02:52:39;2.66;;;2.55;;
15496;SDS011;7850;52.204;5.942;2022-10-19T02:53:38;2.37;;;2.28;;
15496;SDS011;7850;52.204;5.942;2022-10-19T02:54:39;2.85;;;2.75;;
15496;SDS011;7850;52.204;5.942;2022-10-19T02:55:38;1.47;;;1.46;;
15496;SDS011;7850;52.204;5.942;2022-10-19T02:56:38;1.24;;;1.23;;
15496;SDS011;7850;52.204;5.942;2022-10-19T02:57:38;0.66;;;0.65;;
15496;SDS011;7850;52.204;5.942;2022-10-19T02:58:39;0.84;;;0.84;;
15496;SDS011;7850;52.204;5.942;2022-10-19T02:59:39;0.83;;;0.83;;
15496;SDS011;7850;52.204;5.942;2022-10-19T03:00:39;0.94;;;0.94;;
15496;SDS011;7850;52.204;5.942;2022-10-19T03:01:39;0.91;;;0.90;;
15496;SDS011;7850;52.204;5.942;2022-10-19T03:02:39;1.67;;;1.66;;
15496;SDS011;7850;52.204;5.942;2022-10-19T03:03:39;1.69;;;1.68;;
15496;SDS011;7850;52.204;5.942;2022-10-19T03:04:39;2.44;;;2.34;;
15496;SDS011;7850;52.204;5.942;2022-10-19T03:05:39;2.77;;;2.66;;
15496;SDS011;7850;52.204;5.942;2022-10-19T03:06:39;2.91;;;2.81;;
15496;SDS011;7850;52.204;5.942;2022-10-19T03:07:39;2.87;;;2.76;;
15496;SDS011;7850;52.204;5.942;2022-10-19T03:08:39;2.35;;;2.27;;
15496;SDS011;7850;52.204;5.942;2022-10-19T03:09:39;1.85;;;1.82;;
15496;SDS011;7850;52.204;5.942;2022-10-19T03:10:39;1.11;;;1.11;;
15496;SDS011;7850;52.204;5.942;2022-10-19T03:11:39;0.23;;;0.22;;
15496;SDS011;7850;52.204;5.942;2022-10-19T03:12:39;1.63;;;1.62;;
15496;SDS011;7850;52.204;5.942;2022-10-19T03:13:40;2.55;;;2.45;;
15496;SDS011;7850;52.204;5.942;2022-10-19T03:14:40;2.21;;;2.14;;
15496;SDS011;7850;52.204;5.942;2022-10-19T03:15:40;1.73;;;1.70;;
15496;SDS011;7850;52.204;5.942;2022-10-19T03:16:40;1.83;;;1.79;;
15496;SDS011;7850;52.204;5.942;2022-10-19T03:17:40;2.46;;;2.37;;
15496;SDS011;7850;52.204;5.942;2022-10-19T03:18:40;0.44;;;0.44;;
15496;SDS011;7850;52.204;5.942;2022-10-19T03:19:40;0.16;;;0.16;;
15496;SDS011;7850;52.204;5.942;2022-10-19T03:20:40;0.20;;;0.20;;
15496;SDS011;7850;52.204;5.942;2022-10-19T03:21:40;0.10;;;0.10;;
15496;SDS011;7850;52.204;5.942;2022-10-19T03:22:40;0.10;;;0.10;;
15496;SDS011;7850;52.204;5.942;2022-10-19T03:23:40;0.19;;;0.19;;
15496;SDS011;7850;52.204;5.942;2022-10-19T03:24:40;0.18;;;0.18;;
15496;SDS011;7850;52.204;5.942;2022-10-19T03:25:40;0.20;;;0.20;;
15496;SDS011;7850;52.204;5.942;2022-10-19T03:26:40;0.10;;;0.10;;
15496;SDS011;7850;52.204;5.942;2022-10-19T03:27:40;0.10;;;0.10;;
15496;SDS011;7850;52.204;5.942;2022-10-19T03:28:41;0.10;;;0.10;;
15496;SDS011;7850;52.204;5.942;2022-10-19T03:29:41;0.10;;;0.10;;
15496;SDS011;7850;52.204;5.942;2022-10-19T03:30:41;0.14;;;0.14;;
15496;SDS011;7850;52.204;5.942;2022-10-19T03:31:41;0.10;;;0.10;;
15496;SDS011;7850;52.204;5.942;2022-10-19T03:32:41;0.10;;;0.10;;
15496;SDS011;7850;52.204;5.942;2022-10-19T03:33:41;0.10;;;0.10;;
15496;SDS011;7850;52.204;5.942;2022-10-19T03:34:41;0.62;;;0.62;;
15496;SDS011;7850;52.204;5.942;2022-10-19T03:35:41;0.89;;;0.89;;
15496;SDS011;7850;52.204;5.942;2022-10-19T03:36:41;0.74;;;0.74;;
15496;SDS011;7850;52.204;5.942;2022-10-19T03:37:41;0.10;;;0.10;;
15496;SDS011;7850;52.204;5.942;2022-10-19T03:38:41;0.11;;;0.11;;
15496;SDS011;7850;52.204;5.942;2022-10-19T03:39:41;0.10;;;0.10;;
15496;SDS011;7850;52.204;5.942;2022-10-19T03:40:41;0.10;;;0.10;;
15496;SDS011;7850;52.204;5.942;2022-10-19T03:41:41;0.10;;;0.10;;
15496;SDS011;7850;52.204;5.942;2022-10-19T03:42:41;0.91;;;0.91;;
15496;SDS011;7850;52.204;5.942;2022-10-19T03:43:41;0.73;;;0.73;;
15496;SDS011;7850;52.204;5.942;2022-10-19T03:44:41;0.28;;;0.28;;
15496;SDS011;7850;52.204;5.942;2022-10-19T03:45:44;0.20;;;0.20;;
15496;SDS011;7850;52.204;5.942;2022-10-19T03:46:42;0.20;;;0.20;;
15496;SDS011;7850;52.204;5.942;2022-10-19T03:47:42;0.20;;;0.20;;
15496;SDS011;7850;52.204;5.942;2022-10-19T03:48:42;0.20;;;0.20;;
15496;SDS011;7850;52.204;5.942;2022-10-19T03:49:42;0.17;;;0.17;;
15496;SDS011;7850;52.204;5.942;2022-10-19T03:50:42;0.20;;;0.20;;
15496;SDS011;7850;52.204;5.942;2022-10-19T03:51:42;0.20;;;0.20;;
15496;SDS011;7850;52.204;5.942;2022-10-19T03:52:42;0.10;;;0.10;;
15496;SDS011;7850;52.204;5.942;2022-10-19T03:53:42;1.12;;;1.12;;
15496;SDS011;7850;52.204;5.942;2022-10-19T03:54:42;0.10;;;0.10;;
15496;SDS011;7850;52.204;5.942;2022-10-19T03:55:42;0.10;;;0.10;;
15496;SDS011;7850;52.204;5.942;2022-10-19T03:56:42;1.85;;;1.80;;
15496;SDS011;7850;52.204;5.942;2022-10-19T03:57:42;0.93;;;0.93;;
15496;SDS011;7850;52.204;5.942;2022-10-19T03:58:43;0.69;;;0.69;;
15496;SDS011;7850;52.204;5.942;2022-10-19T03:59:42;0.88;;;0.88;;
15496;SDS011;7850;52.204;5.942;2022-10-19T04:00:42;0.81;;;0.81;;
15496;SDS011;7850;52.204;5.942;2022-10-19T04:01:44;0.94;;;0.94;;
15496;SDS011;7850;52.204;5.942;2022-10-19T04:02:43;0.93;;;0.92;;
15496;SDS011;7850;52.204;5.942;2022-10-19T04:03:43;1.09;;;1.08;;
15496;SDS011;7850;52.204;5.942;2022-10-19T04:04:43;0.22;;;0.22;;
15496;SDS011;7850;52.204;5.942;2022-10-19T04:05:43;0.44;;;0.44;;
15496;SDS011;7850;52.204;5.942;2022-10-19T04:06:44;0.25;;;0.25;;
15496;SDS011;7850;52.204;5.942;2022-10-19T04:07:43;0.20;;;0.20;;
15496;SDS011;7850;52.204;5.942;2022-10-19T04:08:43;0.20;;;0.20;;
15496;SDS011;7850;52.204;5.942;2022-10-19T04:09:43;0.27;;;0.27;;
15496;SDS011;7850;52.204;5.942;2022-10-19T04:10:43;0.31;;;0.31;;
15496;SDS011;7850;52.204;5.942;2022-10-19T04:11:43;0.41;;;0.41;;
15496;SDS011;7850;52.204;5.942;2022-10-19T04:12:43;0.73;;;0.73;;
15496;SDS011;7850;52.204;5.942;2022-10-19T04:13:43;0.76;;;0.76;;
15496;SDS011;7850;52.204;5.942;2022-10-19T04:14:43;0.90;;;0.90;;
15496;SDS011;7850;52.204;5.942;2022-10-19T04:15:44;0.80;;;0.79;;
15496;SDS011;7850;52.204;5.942;2022-10-19T04:16:44;0.80;;;0.79;;
15496;SDS011;7850;52.204;5.942;2022-10-19T04:17:44;0.52;;;0.52;;
15496;SDS011;7850;52.204;5.942;2022-10-19T04:18:44;0.50;;;0.50;;
15496;SDS011;7850;52.204;5.942;2022-10-19T04:19:44;0.52;;;0.51;;
15496;SDS011;7850;52.204;5.942;2022-10-19T04:20:44;0.28;;;0.28;;
15496;SDS011;7850;52.204;5.942;2022-10-19T04:21:46;0.27;;;0.27;;
15496;SDS011;7850;52.204;5.942;2022-10-19T04:22:44;0.20;;;0.20;;
15496;SDS011;7850;52.204;5.942;2022-10-19T04:23:44;0.36;;;0.35;;
15496;SDS011;7850;52.204;5.942;2022-10-19T04:24:44;0.40;;;0.39;;
15496;SDS011;7850;52.204;5.942;2022-10-19T04:25:44;1.17;;;1.16;;
15496;SDS011;7850;52.204;5.942;2022-10-19T04:26:45;0.32;;;0.32;;
15496;SDS011;7850;52.204;5.942;2022-10-19T04:27:44;0.64;;;0.64;;
15496;SDS011;7850;52.204;5.942;2022-10-19T04:28:44;0.22;;;0.21;;
15496;SDS011;7850;52.204;5.942;2022-10-19T04:29:44;0.30;;;0.29;;
15496;SDS011;7850;52.204;5.942;2022-10-19T04:30:44;0.38;;;0.38;;
15496;SDS011;7850;52.204;5.942;2022-10-19T04:31:45;0.27;;;0.27;;
15496;SDS011;7850;52.204;5.942;2022-10-19T04:32:45;0.33;;;0.32;;
15496;SDS011;7850;52.204;5.942;2022-10-19T04:33:45;0.30;;;0.30;;
15496;SDS011;7850;52.204;5.942;2022-10-19T04:34:45;0.49;;;0.48;;
15496;SDS011;7850;52.204;5.942;2022-10-19T04:35:45;1.04;;;1.03;;
15496;SDS011;7850;52.204;5.942;2022-10-19T04:36:45;0.23;;;0.23;;
15496;SDS011;7850;52.204;5.942;2022-10-19T04:37:45;0.39;;;0.38;;
15496;SDS011;7850;52.204;5.942;2022-10-19T04:38:45;2.72;;;2.62;;
15496;SDS011;7850;52.204;5.942;2022-10-19T04:39:45;1.04;;;1.03;;
15496;SDS011;7850;52.204;5.942;2022-10-19T04:40:45;0.92;;;0.91;;
15496;SDS011;7850;52.204;5.942;2022-10-19T04:41:45;0.30;;;0.30;;
15496;SDS011;7850;52.204;5.942;2022-10-19T04:42:45;0.24;;;0.23;;
15496;SDS011;7850;52.204;5.942;2022-10-19T04:43:45;0.30;;;0.30;;
15496;SDS011;7850;52.204;5.942;2022-10-19T04:44:45;1.20;;;1.19;;
15496;SDS011;7850;52.204;5.942;2022-10-19T04:45:45;0.33;;;0.32;;
15496;SDS011;7850;52.204;5.942;2022-10-19T04:46:46;0.30;;;0.29;;
15496;SDS011;7850;52.204;5.942;2022-10-19T04:47:46;0.30;;;0.30;;
15496;SDS011;7850;52.204;5.942;2022-10-19T04:48:46;3.46;;;3.34;;
15496;SDS011;7850;52.204;5.942;2022-10-19T04:49:46;0.33;;;0.33;;
15496;SDS011;7850;52.204;5.942;2022-10-19T04:50:46;0.46;;;0.46;;
15496;SDS011;7850;52.204;5.942;2022-10-19T04:51:46;0.20;;;0.20;;
15496;SDS011;7850;52.204;5.942;2022-10-19T04:52:46;0.53;;;0.52;;
15496;SDS011;7850;52.204;5.942;2022-10-19T04:53:46;0.38;;;0.37;;
15496;SDS011;7850;52.204;5.942;2022-10-19T04:54:46;0.59;;;0.59;;
15496;SDS011;7850;52.204;5.942;2022-10-19T04:55:46;0.40;;;0.39;;
15496;SDS011;7850;52.204;5.942;2022-10-19T04:56:46;0.47;;;0.46;;
15496;SDS011;7850;52.204;5.942;2022-10-19T04:57:46;0.45;;;0.45;;
15496;SDS011;7850;52.204;5.942;2022-10-19T04:58:47;0.97;;;0.96;;
15496;SDS011;7850;52.204;5.942;2022-10-19T04:59:46;0.30;;;0.29;;
15496;SDS011;7850;52.204;5.942;2022-10-19T05:00:46;0.25;;;0.24;;
15496;SDS011;7850;52.204;5.942;2022-10-19T05:01:46;0.30;;;0.30;;
15496;SDS011;7850;52.204;5.942;2022-10-19T05:02:46;0.29;;;0.29;;
15496;SDS011;7850;52.204;5.942;2022-10-19T05:03:47;0.25;;;0.24;;
15496;SDS011;7850;52.204;5.942;2022-10-19T05:04:47;0.30;;;0.30;;
15496;SDS011;7850;52.204;5.942;2022-10-19T05:05:47;0.30;;;0.29;;
15496;SDS011;7850;52.204;5.942;2022-10-19T05:06:47;0.31;;;0.30;;
15496;SDS011;7850;52.204;5.942;2022-10-19T05:07:47;0.50;;;0.49;;
15496;SDS011;7850;52.204;5.942;2022-10-19T05:08:47;0.63;;;0.63;;
15496;SDS011;7850;52.204;5.942;2022-10-19T05:09:47;0.45;;;0.45;;
15496;SDS011;7850;52.204;5.942;2022-10-19T05:10:47;0.62;;;0.61;;
15496;SDS011;7850;52.204;5.942;2022-10-19T05:11:48;0.45;;;0.44;;
15496;SDS011;7850;52.204;5.942;2022-10-19T05:12:47;0.74;;;0.73;;
15496;SDS011;7850;52.204;5.942;2022-10-19T05:13:47;0.58;;;0.58;;
15496;SDS011;7850;52.204;5.942;2022-10-19T05:14:47;0.38;;;0.38;;
15496;SDS011;7850;52.204;5.942;2022-10-19T05:15:54;0.24;;;0.24;;
15496;SDS011;7850;52.204;5.942;2022-10-19T05:16:47;0.20;;;0.20;;
15496;SDS011;7850;52.204;5.942;2022-10-19T05:17:48;0.50;;;0.49;;
15496;SDS011;7850;52.204;5.942;2022-10-19T05:18:48;0.33;;;0.33;;
15496;SDS011;7850;52.204;5.942;2022-10-19T05:19:48;0.20;;;0.20;;
15496;SDS011;7850;52.204;5.942;2022-10-19T05:20:48;0.39;;;0.38;;
15496;SDS011;7850;52.204;5.942;2022-10-19T05:21:48;0.36;;;0.36;;
15496;SDS011;7850;52.204;5.942;2022-10-19T05:22:48;0.45;;;0.44;;
15496;SDS011;7850;52.204;5.942;2022-10-19T05:23:49;0.20;;;0.20;;
15496;SDS011;7850;52.204;5.942;2022-10-19T05:24:48;0.20;;;0.20;;
15496;SDS011;7850;52.204;5.942;2022-10-19T05:25:48;0.64;;;0.64;;
15496;SDS011;7850;52.204;5.942;2022-10-19T05:26:48;0.20;;;0.20;;
15496;SDS011;7850;52.204;5.942;2022-10-19T05:27:50;0.20;;;0.20;;
15496;SDS011;7850;52.204;5.942;2022-10-19T05:28:49;0.20;;;0.20;;
15496;SDS011;7850;52.204;5.942;2022-10-19T05:29:48;0.20;;;0.20;;
15496;SDS011;7850;52.204;5.942;2022-10-19T05:30:48;0.20;;;0.20;;
15496;SDS011;7850;52.204;5.942;2022-10-19T05:31:48;0.20;;;0.20;;
15496;SDS011;7850;52.204;5.942;2022-10-19T05:32:48;0.13;;;0.13;;
15496;SDS011;7850;52.204;5.942;2022-10-19T05:33:49;0.20;;;0.20;;
15496;SDS011;7850;52.204;5.942;2022-10-19T05:34:49;0.20;;;0.20;;
15496;SDS011;7850;52.204;5.942;2022-10-19T05:35:49;0.20;;;0.20;;
15496;SDS011;7850;52.204;5.942;2022-10-19T05:36:49;0.20;;;0.20;;
15496;SDS011;7850;52.204;5.942;2022-10-19T05:37:52;4.03;;;3.81;;
15496;SDS011;7850;52.204;5.942;2022-10-19T05:38:49;0.20;;;0.20;;
15496;SDS011;7850;52.204;5.942;2022-10-19T05:39:49;0.20;;;0.20;;
15496;SDS011;7850;52.204;5.942;2022-10-19T05:40:49;0.20;;;0.20;;
15496;SDS011;7850;52.204;5.942;2022-10-19T05:41:49;1.05;;;1.02;;
15496;SDS011;7850;52.204;5.942;2022-10-19T05:42:49;0.25;;;0.24;;
15496;SDS011;7850;52.204;5.942;2022-10-19T05:43:51;0.30;;;0.30;;
15496;SDS011;7850;52.204;5.942;2022-10-19T05:44:49;0.27;;;0.27;;
15496;SDS011;7850;52.204;5.942;2022-10-19T05:45:49;0.89;;;0.89;;
15496;SDS011;7850;52.204;5.942;2022-10-19T05:46:50;1.31;;;1.31;;
15496;SDS011;7850;52.204;5.942;2022-10-19T05:47:49;0.75;;;0.75;;
15496;SDS011;7850;52.204;5.942;2022-10-19T05:48:49;0.73;;;0.73;;
15496;SDS011;7850;52.204;5.942;2022-10-19T05:49:49;1.49;;;1.47;;
15496;SDS011;7850;52.204;5.942;2022-10-19T05:50:51;0.81;;;0.81;;
15496;SDS011;7850;52.204;5.942;2022-10-19T05:51:50;0.81;;;0.80;;
15496;SDS011;7850;52.204;5.942;2022-10-19T05:52:50;0.67;;;0.67;;
15496;SDS011;7850;52.204;5.942;2022-10-19T05:53:51;1.00;;;0.99;;
15496;SDS011;7850;52.204;5.942;2022-10-19T05:54:50;0.92;;;0.91;;
15496;SDS011;7850;52.204;5.942;2022-10-19T05:55:50;1.08;;;1.07;;
15496;SDS011;7850;52.204;5.942;2022-10-19T05:56:50;1.23;;;1.22;;
15496;SDS011;7850;52.204;5.942;2022-10-19T05:57:50;1.15;;;1.15;;
15496;SDS011;7850;52.204;5.942;2022-10-19T05:58:50;0.74;;;0.73;;
15496;SDS011;7850;52.204;5.942;2022-10-19T05:59:50;1.16;;;1.16;;
15496;SDS011;7850;52.204;5.942;2022-10-19T06:00:51;0.76;;;0.75;;
15496;SDS011;7850;52.204;5.942;2022-10-19T06:01:50;1.04;;;1.04;;
15496;SDS011;7850;52.204;5.942;2022-10-19T06:02:50;0.72;;;0.72;;
15496;SDS011;7850;52.204;5.942;2022-10-19T06:03:52;0.63;;;0.62;;
15496;SDS011;7850;52.204;5.942;2022-10-19T06:04:50;0.83;;;0.82;;
15496;SDS011;7850;52.204;5.942;2022-10-19T06:05:51;0.79;;;0.78;;
15496;SDS011;7850;52.204;5.942;2022-10-19T06:06:51;0.70;;;0.70;;
15496;SDS011;7850;52.204;5.942;2022-10-19T06:07:51;1.23;;;1.23;;